sensor_id;sensor_type;location;lat;lon;timestamp;pressure;altitude;pressure_sealevel;temperature;humidity
54666;BME280;40566;50.006;36.180;2023-07-08T00:04:44;99203.81;;;22.78;70.13
54666;BME280;40566;50.006;36.180;2023-07-08T00:09:45;99182.81;;;22.67;70.16
54666;BME280;40566;50.006;36.180;2023-07-08T00:14:46;99193.53;;;22.65;70.33
54666;BME280;40566;50.006;36.180;2023-07-08T00:19:47;99191.28;;;22.61;70.30
54666;BME280;40566;50.006;36.180;2023-07-08T00:24:48;99178.09;;;22.61;70.46
54666;BME280;40566;50.006;36.180;2023-07-08T00:29:48;99171.53;;;22.55;70.54
54666;BME280;40566;50.006;36.180;2023-07-08T00:34:49;99155.44;;;22.48;70.69
54666;BME280;40566;50.006;36.180;2023-07-08T00:39:49;99157.25;;;22.48;70.75
54666;BME280;40566;50.006;36.180;2023-07-08T00:44:50;99153.78;;;22.47;70.86
54666;BME280;40566;50.006;36.180;2023-07-08T00:49:55;99131.84;;;22.47;70.82
54666;BME280;40566;50.006;36.180;2023-07-08T00:55:01;99142.69;;;22.44;70.83
54666;BME280;40566;50.006;36.180;2023-07-08T01:00:09;99130.72;;;22.40;71.01
54666;BME280;40566;50.006;36.180;2023-07-08T01:05:14;99132.66;;;22.37;71.03
54666;BME280;40566;50.006;36.180;2023-07-08T01:10:22;99133.31;;;22.30;71.15
54666;BME280;40566;50.006;36.180;2023-07-08T01:15:32;99141.72;;;22.24;71.46
54666;BME280;40566;50.006;36.180;2023-07-08T01:20:35;99139.88;;;22.14;71.72
54666;BME280;40566;50.006;36.180;2023-07-08T01:25:37;99147.66;;;22.16;71.41
54666;BME280;40566;50.006;36.180;2023-07-08T01:30:41;99132.81;;;22.15;71.37
54666;BME280;40566;50.006;36.180;2023-07-08T01:35:41;99128.88;;;22.09;71.47
54666;BME280;40566;50.006;36.180;2023-07-08T01:40:54;99107.13;;;22.07;71.21
54666;BME280;40566;50.006;36.180;2023-07-08T01:45:57;99103.78;;;22.05;70.91
54666;BME280;40566;50.006;36.180;2023-07-08T01:51:02;99092.28;;;22.06;70.58
54666;BME280;40566;50.006;36.180;2023-07-08T01:56:04;99095.06;;;22.05;70.41
54666;BME280;40566;50.006;36.180;2023-07-08T02:01:06;99106.53;;;22.04;70.13
54666;BME280;40566;50.006;36.180;2023-07-08T02:06:08;99101.47;;;22.12;70.26
54666;BME280;40566;50.006;36.180;2023-07-08T02:11:09;99119.75;;;22.13;69.51
54666;BME280;40566;50.006;36.180;2023-07-08T02:16:09;99113.53;;;22.14;68.97
54666;BME280;40566;50.006;36.180;2023-07-08T02:21:10;99119.97;;;22.22;68.64
54666;BME280;40566;50.006;36.180;2023-07-08T02:26:13;99120.41;;;22.27;68.29
54666;BME280;40566;50.006;36.180;2023-07-08T02:31:13;99124.31;;;22.32;67.98
54666;BME280;40566;50.006;36.180;2023-07-08T02:36:14;99123.91;;;22.37;67.57
54666;BME280;40566;50.006;36.180;2023-07-08T02:41:14;99143.94;;;22.49;67.25
54666;BME280;40566;50.006;36.180;2023-07-08T02:46:15;99151.03;;;22.58;66.69
54666;BME280;40566;50.006;36.180;2023-07-08T02:51:15;99145.53;;;22.71;66.13
54666;BME280;40566;50.006;36.180;2023-07-08T02:56:16;99140.00;;;22.84;65.72
54666;BME280;40566;50.006;36.180;2023-07-08T03:01:16;99139.59;;;22.89;65.65
54666;BME280;40566;50.006;36.180;2023-07-08T03:06:20;99135.03;;;22.91;65.21
54666;BME280;40566;50.006;36.180;2023-07-08T03:11:22;99148.47;;;22.88;65.39
54666;BME280;40566;50.006;36.180;2023-07-08T03:16:22;99160.25;;;22.84;65.52
54666;BME280;40566;50.006;36.180;2023-07-08T03:21:23;99140.13;;;22.83;65.24
54666;BME280;40566;50.006;36.180;2023-07-08T03:26:26;99136.28;;;22.87;65.32
54666;BME280;40566;50.006;36.180;2023-07-08T03:31:26;99138.47;;;22.82;65.15
54666;BME280;40566;50.006;36.180;2023-07-08T03:36:27;99134.97;;;22.71;65.40
54666;BME280;40566;50.006;36.180;2023-07-08T03:41:28;99143.28;;;22.67;65.28
54666;BME280;40566;50.006;36.180;2023-07-08T03:46:28;99127.75;;;22.64;65.64
54666;BME280;40566;50.006;36.180;2023-07-08T03:51:33;99123.16;;;22.66;65.45
54666;BME280;40566;50.006;36.180;2023-07-08T03:56:35;99133.03;;;22.64;66.35
54666;BME280;40566;50.006;36.180;2023-07-08T04:01:36;99130.94;;;22.67;66.05
54666;BME280;40566;50.006;36.180;2023-07-08T04:06:41;99146.09;;;22.75;65.71
54666;BME280;40566;50.006;36.180;2023-07-08T04:11:41;99157.75;;;22.82;65.65
54666;BME280;40566;50.006;36.180;2023-07-08T04:21:48;99160.19;;;23.24;65.07
54666;BME280;40566;50.006;36.180;2023-07-08T04:26:48;99153.41;;;23.31;65.25
54666;BME280;40566;50.006;36.180;2023-07-08T04:31:49;99137.56;;;23.41;65.18
54666;BME280;40566;50.006;36.180;2023-07-08T04:36:49;99140.91;;;23.43;65.09
54666;BME280;40566;50.006;36.180;2023-07-08T04:41:50;99149.25;;;23.58;65.03
54666;BME280;40566;50.006;36.180;2023-07-08T04:46:53;99121.69;;;23.70;64.85
54666;BME280;40566;50.006;36.180;2023-07-08T04:51:54;99126.84;;;23.72;64.72
54666;BME280;40566;50.006;36.180;2023-07-08T04:56:55;99121.56;;;23.82;64.52
54666;BME280;40566;50.006;36.180;2023-07-08T05:01:55;99124.19;;;23.91;64.63
54666;BME280;40566;50.006;36.180;2023-07-08T05:06:56;99118.31;;;23.98;64.08
54666;BME280;40566;50.006;36.180;2023-07-08T05:11:56;99111.94;;;23.90;64.54
54666;BME280;40566;50.006;36.180;2023-07-08T05:16:57;99111.63;;;24.03;64.29
54666;BME280;40566;50.006;36.180;2023-07-08T05:21:59;99103.00;;;24.29;64.27
54666;BME280;40566;50.006;36.180;2023-07-08T05:27:00;99111.16;;;24.55;63.20
54666;BME280;40566;50.006;36.180;2023-07-08T05:32:00;99113.41;;;24.68;62.97
54666;BME280;40566;50.006;36.180;2023-07-08T05:37:01;99107.38;;;24.76;63.34
54666;BME280;40566;50.006;36.180;2023-07-08T05:42:02;99096.59;;;24.87;63.17
54666;BME280;40566;50.006;36.180;2023-07-08T05:47:03;99092.75;;;24.99;62.44
54666;BME280;40566;50.006;36.180;2023-07-08T05:52:04;99087.38;;;25.09;62.76
54666;BME280;40566;50.006;36.180;2023-07-08T05:57:10;99089.75;;;25.30;61.92
54666;BME280;40566;50.006;36.180;2023-07-08T06:02:12;99080.25;;;25.45;61.37
54666;BME280;40566;50.006;36.180;2023-07-08T06:07:13;99063.03;;;25.67;60.24
54666;BME280;40566;50.006;36.180;2023-07-08T06:12:14;99072.94;;;25.65;60.23
54666;BME280;40566;50.006;36.180;2023-07-08T06:17:16;99062.66;;;25.62;60.34
54666;BME280;40566;50.006;36.180;2023-07-08T06:22:17;99064.09;;;25.57;60.45
54666;BME280;40566;50.006;36.180;2023-07-08T06:27:17;99063.38;;;25.46;60.32
54666;BME280;40566;50.006;36.180;2023-07-08T06:32:18;99049.13;;;25.47;60.46
54666;BME280;40566;50.006;36.180;2023-07-08T06:37:18;99045.22;;;25.51;59.94
54666;BME280;40566;50.006;36.180;2023-07-08T06:42:19;99054.03;;;25.60;59.89
54666;BME280;40566;50.006;36.180;2023-07-08T06:47:20;99080.56;;;25.68;59.86
54666;BME280;40566;50.006;36.180;2023-07-08T06:52:21;99103.47;;;25.78;59.68
54666;BME280;40566;50.006;36.180;2023-07-08T06:57:22;99103.00;;;25.82;59.38
54666;BME280;40566;50.006;36.180;2023-07-08T07:02:22;99096.41;;;25.86;59.37
54666;BME280;40566;50.006;36.180;2023-07-08T07:07:23;99093.91;;;25.85;58.97
54666;BME280;40566;50.006;36.180;2023-07-08T07:12:24;99069.00;;;25.69;60.58
54666;BME280;40566;50.006;36.180;2023-07-08T07:17:25;99085.84;;;25.42;62.16
54666;BME280;40566;50.006;36.180;2023-07-08T07:22:27;99083.97;;;25.35;62.27
54666;BME280;40566;50.006;36.180;2023-07-08T07:27:30;99094.34;;;25.46;62.38
54666;BME280;40566;50.006;36.180;2023-07-08T07:32:31;99074.28;;;25.69;61.54
54666;BME280;40566;50.006;36.180;2023-07-08T07:37:33;99060.47;;;25.84;60.56
54666;BME280;40566;50.006;36.180;2023-07-08T07:42:33;99037.13;;;25.87;60.92
54666;BME280;40566;50.006;36.180;2023-07-08T07:47:34;99009.34;;;25.91;60.36
54666;BME280;40566;50.006;36.180;2023-07-08T07:52:37;98992.75;;;25.89;60.23
54666;BME280;40566;50.006;36.180;2023-07-08T07:57:38;99025.53;;;25.88;60.05
54666;BME280;40566;50.006;36.180;2023-07-08T08:02:38;99041.34;;;25.98;59.87
54666;BME280;40566;50.006;36.180;2023-07-08T08:07:39;99068.88;;;26.05;59.67
54666;BME280;40566;50.006;36.180;2023-07-08T08:12:41;99071.88;;;26.10;59.51
54666;BME280;40566;50.006;36.180;2023-07-08T08:17:41;99075.16;;;26.04;59.42
54666;BME280;40566;50.006;36.180;2023-07-08T08:22:43;99085.38;;;25.91;59.62
54666;BME280;40566;50.006;36.180;2023-07-08T08:27:43;99093.19;;;25.75;60.58
54666;BME280;40566;50.006;36.180;2023-07-08T08:32:45;99091.50;;;25.65;60.87
54666;BME280;40566;50.006;36.180;2023-07-08T08:37:45;99080.31;;;25.53;61.70
54666;BME280;40566;50.006;36.180;2023-07-08T08:42:51;99083.41;;;25.49;61.83
54666;BME280;40566;50.006;36.180;2023-07-08T08:47:59;99072.38;;;25.53;62.46
54666;BME280;40566;50.006;36.180;2023-07-08T08:53:04;99063.47;;;25.63;62.12
54666;BME280;40566;50.006;36.180;2023-07-08T09:03:32;99057.78;;;25.49;62.19
54666;BME280;40566;50.006;36.180;2023-07-08T09:08:35;99063.75;;;25.33;63.24
54666;BME280;40566;50.006;36.180;2023-07-08T09:13:37;99043.44;;;25.16;63.42
54666;BME280;40566;50.006;36.180;2023-07-08T09:19:00;98992.50;;;24.96;64.68
54666;BME280;40566;50.006;36.180;2023-07-08T09:24:09;99000.50;;;24.68;65.71
54666;BME280;40566;50.006;36.180;2023-07-08T09:29:13;99025.00;;;24.52;66.66
54666;BME280;40566;50.006;36.180;2023-07-08T09:34:21;99024.59;;;24.47;66.92
54666;BME280;40566;50.006;36.180;2023-07-08T09:39:22;99040.75;;;24.44;66.88
54666;BME280;40566;50.006;36.180;2023-07-08T09:44:25;99023.19;;;24.53;66.70
54666;BME280;40566;50.006;36.180;2023-07-08T09:49:31;99020.72;;;24.69;66.12
54666;BME280;40566;50.006;36.180;2023-07-08T09:54:33;99031.28;;;24.87;65.70
54666;BME280;40566;50.006;36.180;2023-07-08T09:59:57;99035.19;;;25.19;64.84
54666;BME280;40566;50.006;36.180;2023-07-08T10:05:12;99036.22;;;25.44;64.46
54666;BME280;40566;50.006;36.180;2023-07-08T10:10:16;99030.16;;;25.52;64.58
54666;BME280;40566;50.006;36.180;2023-07-08T10:15:23;99022.69;;;25.82;63.71
54666;BME280;40566;50.006;36.180;2023-07-08T10:20:33;99008.28;;;26.19;63.55
54666;BME280;40566;50.006;36.180;2023-07-08T10:25:58;99004.91;;;26.59;62.38
54666;BME280;40566;50.006;36.180;2023-07-08T11:08:43;99042.88;;;28.22;57.54
54666;BME280;40566;50.006;36.180;2023-07-08T11:13:50;99043.13;;;28.44;57.52
54666;BME280;40566;50.006;36.180;2023-07-08T11:23:57;99047.91;;;28.48;56.99
54666;BME280;40566;50.006;36.180;2023-07-08T11:29:00;99027.16;;;28.44;56.72
54666;BME280;40566;50.006;36.180;2023-07-08T11:34:01;99028.19;;;28.35;56.70
54666;BME280;40566;50.006;36.180;2023-07-08T11:39:42;99022.16;;;28.09;56.64
54666;BME280;40566;50.006;36.180;2023-07-08T11:44:44;99005.78;;;27.89;56.62
54666;BME280;40566;50.006;36.180;2023-07-08T11:49:52;98994.97;;;27.99;56.74
54666;BME280;40566;50.006;36.180;2023-07-08T11:55:03;98999.41;;;28.07;55.99
54666;BME280;40566;50.006;36.180;2023-07-08T12:00:17;98989.69;;;28.22;55.42
54666;BME280;40566;50.006;36.180;2023-07-08T12:05:35;98982.16;;;28.57;54.92
54666;BME280;40566;50.006;36.180;2023-07-08T12:10:41;98974.19;;;28.57;54.85
54666;BME280;40566;50.006;36.180;2023-07-08T12:15:46;98983.72;;;28.52;55.21
54666;BME280;40566;50.006;36.180;2023-07-08T12:21:01;98963.44;;;28.51;54.90
54666;BME280;40566;50.006;36.180;2023-07-08T12:26:02;98991.00;;;28.49;55.15
54666;BME280;40566;50.006;36.180;2023-07-08T12:31:13;98977.25;;;28.69;54.51
54666;BME280;40566;50.006;36.180;2023-07-08T12:36:20;98995.06;;;28.92;53.39
54666;BME280;40566;50.006;36.180;2023-07-08T12:41:29;98994.41;;;28.90;53.17
54666;BME280;40566;50.006;36.180;2023-07-08T12:46:30;99004.03;;;28.91;53.21
54666;BME280;40566;50.006;36.180;2023-07-08T12:51:31;99010.81;;;28.78;52.60
54666;BME280;40566;50.006;36.180;2023-07-08T12:56:31;99007.50;;;28.76;52.86
54666;BME280;40566;50.006;36.180;2023-07-08T13:01:34;99002.56;;;28.65;52.54
54666;BME280;40566;50.006;36.180;2023-07-08T13:06:36;99006.91;;;28.66;53.09
54666;BME280;40566;50.006;36.180;2023-07-08T13:11:37;99016.34;;;28.68;52.95
54666;BME280;40566;50.006;36.180;2023-07-08T13:16:38;99006.91;;;28.66;52.45
54666;BME280;40566;50.006;36.180;2023-07-08T13:21:39;99022.28;;;28.56;52.66
54666;BME280;40566;50.006;36.180;2023-07-08T13:26:45;99013.84;;;28.44;52.24
54666;BME280;40566;50.006;36.180;2023-07-08T13:31:55;99003.53;;;28.41;52.30
54666;BME280;40566;50.006;36.180;2023-07-08T13:36:55;99011.34;;;28.42;52.43
54666;BME280;40566;50.006;36.180;2023-07-08T13:41:57;98996.13;;;28.59;51.88
54666;BME280;40566;50.006;36.180;2023-07-08T13:46:59;98982.06;;;28.74;51.64
54666;BME280;40566;50.006;36.180;2023-07-08T13:57:17;98944.56;;;28.83;50.65
54666;BME280;40566;50.006;36.180;2023-07-08T14:02:21;98946.91;;;28.78;50.67
54666;BME280;40566;50.006;36.180;2023-07-08T14:07:29;98950.47;;;28.71;50.92
54666;BME280;40566;50.006;36.180;2023-07-08T14:12:29;98964.16;;;28.67;51.04
54666;BME280;40566;50.006;36.180;2023-07-08T14:17:31;98962.84;;;28.63;50.84
54666;BME280;40566;50.006;36.180;2023-07-08T14:22:32;98972.00;;;28.61;50.78
54666;BME280;40566;50.006;36.180;2023-07-08T14:27:32;98962.88;;;28.55;50.47
54666;BME280;40566;50.006;36.180;2023-07-08T14:32:33;98968.91;;;28.49;50.69
54666;BME280;40566;50.006;36.180;2023-07-08T14:37:34;98976.47;;;28.37;50.87
54666;BME280;40566;50.006;36.180;2023-07-08T14:42:34;99033.28;;;28.13;51.90
54666;BME280;40566;50.006;36.180;2023-07-08T14:47:36;99119.28;;;27.23;53.87
54666;BME280;40566;50.006;36.180;2023-07-08T14:52:37;99136.22;;;24.97;59.20
54666;BME280;40566;50.006;36.180;2023-07-08T14:57:44;99201.03;;;23.40;63.07
54666;BME280;40566;50.006;36.180;2023-07-08T15:02:47;99176.50;;;22.79;64.03
54666;BME280;40566;50.006;36.180;2023-07-08T15:07:52;99191.75;;;22.45;65.17
54666;BME280;40566;50.006;36.180;2023-07-08T15:12:53;99195.34;;;22.34;65.46
54666;BME280;40566;50.006;36.180;2023-07-08T15:17:55;99174.53;;;22.10;66.82
54666;BME280;40566;50.006;36.180;2023-07-08T15:22:56;99148.78;;;21.92;67.84
54666;BME280;40566;50.006;36.180;2023-07-08T15:27:57;99115.63;;;21.90;68.56
54666;BME280;40566;50.006;36.180;2023-07-08T15:32:57;99086.00;;;21.97;68.33
54666;BME280;40566;50.006;36.180;2023-07-08T15:37:58;99071.47;;;22.03;67.75
54666;BME280;40566;50.006;36.180;2023-07-08T15:43:01;99067.91;;;22.04;68.37
54666;BME280;40566;50.006;36.180;2023-07-08T15:48:04;99083.41;;;22.07;68.37
54666;BME280;40566;50.006;36.180;2023-07-08T15:53:04;99099.75;;;22.01;68.69
54666;BME280;40566;50.006;36.180;2023-07-08T15:58:12;99104.72;;;21.94;69.00
54666;BME280;40566;50.006;36.180;2023-07-08T16:03:28;99084.03;;;21.90;68.93
54666;BME280;40566;50.006;36.180;2023-07-08T16:08:29;99085.47;;;21.73;69.54
54666;BME280;40566;50.006;36.180;2023-07-08T16:13:34;99059.69;;;21.67;69.95
54666;BME280;40566;50.006;36.180;2023-07-08T16:18:35;99057.16;;;21.65;69.65
54666;BME280;40566;50.006;36.180;2023-07-08T16:23:36;99040.09;;;21.59;69.79
54666;BME280;40566;50.006;36.180;2023-07-08T16:28:40;99006.41;;;21.53;70.17
54666;BME280;40566;50.006;36.180;2023-07-08T16:33:42;99016.22;;;21.51;70.53
54666;BME280;40566;50.006;36.180;2023-07-08T16:38:43;99007.81;;;21.57;70.73
54666;BME280;40566;50.006;36.180;2023-07-08T16:43:44;98988.97;;;21.62;70.40
54666;BME280;40566;50.006;36.180;2023-07-08T16:48:45;98987.34;;;21.61;71.08
54666;BME280;40566;50.006;36.180;2023-07-08T16:53:46;98982.06;;;21.61;71.44
54666;BME280;40566;50.006;36.180;2023-07-08T16:58:47;98981.38;;;21.59;71.71
54666;BME280;40566;50.006;36.180;2023-07-08T17:03:49;98995.34;;;21.59;72.30
54666;BME280;40566;50.006;36.180;2023-07-08T17:08:50;98997.16;;;21.59;72.26
54666;BME280;40566;50.006;36.180;2023-07-08T17:13:51;98979.84;;;21.56;72.41
54666;BME280;40566;50.006;36.180;2023-07-08T17:18:53;98969.16;;;21.58;72.37
54666;BME280;40566;50.006;36.180;2023-07-08T17:23:55;98987.88;;;21.55;72.17
54666;BME280;40566;50.006;36.180;2023-07-08T17:28:55;98997.56;;;21.54;72.38
54666;BME280;40566;50.006;36.180;2023-07-08T17:33:57;98998.09;;;21.58;72.30
54666;BME280;40566;50.006;36.180;2023-07-08T17:38:59;99029.44;;;21.61;72.39
54666;BME280;40566;50.006;36.180;2023-07-08T17:44:00;99059.63;;;21.57;72.54
54666;BME280;40566;50.006;36.180;2023-07-08T17:49:00;99078.75;;;21.59;72.67
54666;BME280;40566;50.006;36.180;2023-07-08T17:54:03;99076.38;;;21.56;72.96
54666;BME280;40566;50.006;36.180;2023-07-08T17:59:04;99070.28;;;21.55;73.37
54666;BME280;40566;50.006;36.180;2023-07-08T18:04:07;99073.47;;;21.59;73.15
54666;BME280;40566;50.006;36.180;2023-07-08T18:09:07;99079.84;;;21.56;73.24
54666;BME280;40566;50.006;36.180;2023-07-08T18:14:09;99086.75;;;21.57;73.46
54666;BME280;40566;50.006;36.180;2023-07-08T18:19:09;99093.84;;;21.57;73.63
54666;BME280;40566;50.006;36.180;2023-07-08T18:24:11;99086.19;;;21.54;73.75
54666;BME280;40566;50.006;36.180;2023-07-08T18:29:12;99072.31;;;21.52;73.99
54666;BME280;40566;50.006;36.180;2023-07-08T18:34:13;99063.13;;;21.46;74.22
54666;BME280;40566;50.006;36.180;2023-07-08T18:39:13;99092.94;;;21.47;74.23
54666;BME280;40566;50.006;36.180;2023-07-08T18:44:28;99061.63;;;21.44;74.46
54666;BME280;40566;50.006;36.180;2023-07-08T18:49:30;99032.75;;;21.42;74.80
54666;BME280;40566;50.006;36.180;2023-07-08T18:54:31;99004.91;;;21.39;75.05
54666;BME280;40566;50.006;36.180;2023-07-08T18:59:32;99013.75;;;21.38;75.45
54666;BME280;40566;50.006;36.180;2023-07-08T19:04:32;99023.34;;;21.39;75.51
54666;BME280;40566;50.006;36.180;2023-07-08T19:09:33;99025.13;;;21.39;75.58
54666;BME280;40566;50.006;36.180;2023-07-08T19:14:34;99029.31;;;21.42;75.66
54666;BME280;40566;50.006;36.180;2023-07-08T19:19:34;99042.47;;;21.42;76.09
54666;BME280;40566;50.006;36.180;2023-07-08T19:24:35;99068.69;;;21.43;76.12
54666;BME280;40566;50.006;36.180;2023-07-08T19:29:35;99099.28;;;21.44;76.41
54666;BME280;40566;50.006;36.180;2023-07-08T19:34:36;99077.84;;;21.49;76.63
54666;BME280;40566;50.006;36.180;2023-07-08T19:39:37;99048.06;;;21.48;76.71
54666;BME280;40566;50.006;36.180;2023-07-08T19:44:37;99032.84;;;21.52;76.92
54666;BME280;40566;50.006;36.180;2023-07-08T19:49:38;99041.03;;;21.49;77.20
54666;BME280;40566;50.006;36.180;2023-07-08T19:54:39;99036.13;;;21.44;77.53
54666;BME280;40566;50.006;36.180;2023-07-08T19:59:40;99043.19;;;21.44;77.90
54666;BME280;40566;50.006;36.180;2023-07-08T20:04:40;99067.94;;;21.41;78.13
54666;BME280;40566;50.006;36.180;2023-07-08T20:09:41;99094.25;;;21.41;78.53
54666;BME280;40566;50.006;36.180;2023-07-08T20:14:41;99107.53;;;21.39;78.77
54666;BME280;40566;50.006;36.180;2023-07-08T20:19:42;99105.59;;;21.42;78.94
54666;BME280;40566;50.006;36.180;2023-07-08T20:24:43;99093.28;;;21.42;78.80
54666;BME280;40566;50.006;36.180;2023-07-08T20:29:43;99096.53;;;21.34;78.84
54666;BME280;40566;50.006;36.180;2023-07-08T20:34:44;99093.13;;;21.23;79.09
54666;BME280;40566;50.006;36.180;2023-07-08T20:39:44;99059.63;;;21.25;79.07
54666;BME280;40566;50.006;36.180;2023-07-08T20:44:45;99042.41;;;21.32;78.88
54666;BME280;40566;50.006;36.180;2023-07-08T20:49:45;99026.38;;;21.35;78.76
54666;BME280;40566;50.006;36.180;2023-07-08T20:54:47;99008.25;;;21.42;78.82
54666;BME280;40566;50.006;36.180;2023-07-08T20:59:51;98993.28;;;21.42;79.13
54666;BME280;40566;50.006;36.180;2023-07-08T21:04:52;98991.63;;;21.41;79.46
54666;BME280;40566;50.006;36.180;2023-07-08T21:09:52;98988.19;;;21.41;79.54
54666;BME280;40566;50.006;36.180;2023-07-08T21:14:53;98965.19;;;21.43;79.81
54666;BME280;40566;50.006;36.180;2023-07-08T21:19:53;98946.53;;;21.46;80.19
54666;BME280;40566;50.006;36.180;2023-07-08T21:24:54;98936.00;;;21.46;80.45
54666;BME280;40566;50.006;36.180;2023-07-08T21:29:55;98921.91;;;21.47;80.52
54666;BME280;40566;50.006;36.180;2023-07-08T21:34:55;98912.78;;;21.51;80.83
54666;BME280;40566;50.006;36.180;2023-07-08T21:39:56;98895.88;;;21.53;80.85
54666;BME280;40566;50.006;36.180;2023-07-08T21:44:56;98881.34;;;21.59;81.18
54666;BME280;40566;50.006;36.180;2023-07-08T21:49:57;98863.75;;;21.59;81.30
54666;BME280;40566;50.006;36.180;2023-07-08T21:54:57;98862.38;;;21.55;81.65
54666;BME280;40566;50.006;36.180;2023-07-08T21:59:58;98859.03;;;21.53;81.67
54666;BME280;40566;50.006;36.180;2023-07-08T22:04:59;98854.59;;;21.54;81.86
54666;BME280;40566;50.006;36.180;2023-07-08T22:09:59;98840.63;;;21.53;81.85
54666;BME280;40566;50.006;36.180;2023-07-08T22:15:00;98824.00;;;21.53;81.97
54666;BME280;40566;50.006;36.180;2023-07-08T22:20:00;98829.84;;;21.56;81.98
54666;BME280;40566;50.006;36.180;2023-07-08T22:25:01;98830.78;;;21.55;81.94
54666;BME280;40566;50.006;36.180;2023-07-08T22:30:02;98810.28;;;21.49;82.27
54666;BME280;40566;50.006;36.180;2023-07-08T22:35:03;98800.69;;;21.48;82.23
54666;BME280;40566;50.006;36.180;2023-07-08T22:40:04;98795.44;;;21.48;82.21
54666;BME280;40566;50.006;36.180;2023-07-08T22:45:11;98788.94;;;21.52;82.16
54666;BME280;40566;50.006;36.180;2023-07-08T22:50:25;98787.72;;;21.56;81.95
54666;BME280;40566;50.006;36.180;2023-07-08T22:55:30;98800.59;;;21.59;81.55
54666;BME280;40566;50.006;36.180;2023-07-08T23:00:31;98813.88;;;21.58;81.94
54666;BME280;40566;50.006;36.180;2023-07-08T23:05:33;98808.22;;;21.63;82.08
54666;BME280;40566;50.006;36.180;2023-07-08T23:10:36;98832.44;;;21.66;81.84
54666;BME280;40566;50.006;36.180;2023-07-08T23:15:37;98838.44;;;21.68;81.88
54666;BME280;40566;50.006;36.180;2023-07-08T23:20:38;98844.41;;;21.70;81.96
54666;BME280;40566;50.006;36.180;2023-07-08T23:25:40;98835.81;;;21.68;82.30
54666;BME280;40566;50.006;36.180;2023-07-08T23:30:41;98847.84;;;21.71;82.28
54666;BME280;40566;50.006;36.180;2023-07-08T23:35:45;98837.19;;;21.72;82.56
54666;BME280;40566;50.006;36.180;2023-07-08T23:40:46;98842.47;;;21.72;82.16
54666;BME280;40566;50.006;36.180;2023-07-08T23:45:47;98823.06;;;21.73;82.56
54666;BME280;40566;50.006;36.180;2023-07-08T23:50:48;98831.66;;;21.75;82.81
54666;BME280;40566;50.006;36.180;2023-07-08T23:55:49;98823.75;;;21.75;82.95
